createdAt,value
2022-12-07T00:02:23.409Z,97246.13
2022-12-07T00:04:50.073Z,97246.78
2022-12-07T00:07:16.698Z,97250.03
2022-12-07T00:09:43.319Z,97241.16
2022-12-07T00:12:09.968Z,97234.94
2022-12-07T00:14:36.618Z,97241.66
2022-12-07T00:17:03.354Z,97240.25
2022-12-07T00:19:30.022Z,97233.25
2022-12-07T00:21:56.682Z,97233.25
2022-12-07T00:24:23.324Z,97227.69
2022-12-07T00:26:49.962Z,97233.09
2022-12-07T00:29:16.597Z,97225.25
2022-12-07T00:31:43.339Z,97227.84
2022-12-07T00:34:10.000Z,97231.78
2022-12-07T00:36:36.672Z,97233.75
2022-12-07T00:39:03.345Z,97228.03
2022-12-07T00:41:30.044Z,97223.59
2022-12-07T00:43:56.639Z,97225.25
2022-12-07T00:46:23.405Z,97226.72
2022-12-07T00:48:50.143Z,97223.28
2022-12-07T00:51:16.834Z,97217.38
2022-12-07T00:53:43.470Z,97231.72
2022-12-07T00:56:10.107Z,97234.69
2022-12-07T00:58:36.799Z,97229.34
2022-12-07T01:01:03.536Z,97228.00
2022-12-07T01:03:30.282Z,97227.53
2022-12-07T01:05:56.990Z,97223.47
2022-12-07T01:08:23.639Z,97233.69
2022-12-07T01:10:50.324Z,97236.44
2022-12-07T01:13:16.960Z,97242.00
2022-12-07T01:15:43.550Z,97236.25
2022-12-07T01:18:10.191Z,97234.81
2022-12-07T01:20:36.854Z,97236.06
2022-12-07T01:23:03.479Z,97235.97
2022-12-07T01:25:30.198Z,97239.91
2022-12-07T01:27:56.859Z,97231.06
2022-12-07T01:30:23.560Z,97230.72
2022-12-07T01:32:50.301Z,97226.03
2022-12-07T01:35:16.925Z,97229.16
2022-12-07T01:37:43.579Z,97225.09
2022-12-07T01:40:10.237Z,97226.06
2022-12-07T01:42:36.856Z,97228.16
2022-12-07T01:45:03.461Z,97222.28
2022-12-07T01:47:30.112Z,97223.13
2022-12-07T01:49:56.701Z,97219.69
2022-12-07T01:52:23.393Z,97215.63
2022-12-07T01:54:50.032Z,97213.16
2022-12-07T01:57:16.685Z,97213.19
2022-12-07T01:59:43.380Z,97211.41
2022-12-07T02:02:10.055Z,97207.31
2022-12-07T02:04:36.719Z,97209.44
2022-12-07T02:07:03.344Z,97199.47
2022-12-07T02:09:29.987Z,97191.81
2022-12-07T02:11:56.673Z,97196.22
2022-12-07T02:14:23.315Z,97191.00
2022-12-07T02:16:50.016Z,97197.03
2022-12-07T02:19:16.681Z,97195.06
2022-12-07T02:21:43.301Z,97189.53
2022-12-07T02:24:09.927Z,97188.69
2022-12-07T02:26:36.570Z,97186.44
2022-12-07T02:29:03.256Z,97188.56
2022-12-07T02:31:29.998Z,97192.63
2022-12-07T02:33:56.714Z,97189.88
2022-12-07T02:36:23.367Z,97188.53
2022-12-07T02:38:50.165Z,97187.56
2022-12-07T02:41:16.816Z,97191.50
2022-12-07T02:43:43.510Z,97193.56
2022-12-07T02:46:10.175Z,97188.50
2022-12-07T02:48:36.840Z,97188.34
2022-12-07T02:51:03.427Z,97184.72
2022-12-07T02:53:30.056Z,97182.13
2022-12-07T02:55:56.685Z,97183.44
2022-12-07T02:58:23.334Z,97187.22
2022-12-07T03:00:50.009Z,97183.97
2022-12-07T03:03:16.694Z,97187.38
2022-12-07T03:05:43.352Z,97190.50
2022-12-07T03:08:10.064Z,97192.06
2022-12-07T03:10:36.737Z,97181.63
2022-12-07T03:13:03.313Z,97181.69
2022-12-07T03:15:29.961Z,97189.34
2022-12-07T03:17:56.610Z,97180.88
2022-12-07T03:20:23.260Z,97180.09
2022-12-07T03:22:49.878Z,97177.78
2022-12-07T03:25:16.487Z,97178.16
2022-12-07T03:27:43.179Z,97166.44
2022-12-07T03:30:09.839Z,97168.09
2022-12-07T03:32:36.499Z,97165.59
2022-12-07T03:35:03.119Z,97162.66
2022-12-07T03:37:29.788Z,97156.22
2022-12-07T03:39:56.416Z,97160.03
2022-12-07T03:42:23.028Z,97159.22
2022-12-07T03:44:49.703Z,97159.03
2022-12-07T03:47:16.308Z,97161.28
2022-12-07T03:49:42.957Z,97161.78
2022-12-07T03:52:09.604Z,97167.97
2022-12-07T03:54:36.189Z,97162.78
2022-12-07T03:57:02.843Z,97168.59
2022-12-07T03:59:29.498Z,97168.28
2022-12-07T04:01:56.153Z,97172.41
2022-12-07T04:04:22.867Z,97164.81
2022-12-07T04:06:49.506Z,97171.09
2022-12-07T04:09:16.174Z,97170.91
2022-12-07T04:11:42.847Z,97166.91
2022-12-07T04:14:09.538Z,97168.63
2022-12-07T04:16:41.037Z,97167.78
2022-12-07T04:19:10.809Z,97169.25
2022-12-07T04:21:37.391Z,97166.88
2022-12-07T04:24:03.969Z,97174.09
2022-12-07T04:26:30.579Z,97174.31
2022-12-07T04:28:57.180Z,97165.03
2022-12-07T04:31:23.941Z,97169.31
2022-12-07T04:33:50.638Z,97177.66
2022-12-07T04:36:17.258Z,97170.31
2022-12-07T04:38:43.935Z,97171.72
2022-12-07T04:41:10.560Z,97172.44
2022-12-07T04:43:37.203Z,97162.91
2022-12-07T04:46:03.852Z,97166.88
2022-12-07T04:48:30.469Z,97162.78
2022-12-07T04:50:57.074Z,97159.16
2022-12-07T04:53:23.756Z,97161.91
2022-12-07T04:55:50.386Z,97162.56
2022-12-07T04:58:17.072Z,97156.50
2022-12-07T05:00:43.752Z,97151.16
2022-12-07T05:03:10.426Z,97157.91
2022-12-07T05:05:37.103Z,97155.06
2022-12-07T05:08:03.769Z,97157.88
2022-12-07T05:10:30.434Z,97155.53
2022-12-07T05:12:57.080Z,97158.47
2022-12-07T05:15:23.747Z,97153.81
2022-12-07T05:17:50.443Z,97159.44
2022-12-07T05:20:17.102Z,97152.00
2022-12-07T05:22:43.688Z,97154.50
2022-12-07T05:25:10.350Z,97158.78
2022-12-07T05:27:36.958Z,97155.19
2022-12-07T05:30:03.797Z,97161.09
2022-12-07T05:32:30.666Z,97166.78
2022-12-07T05:34:57.277Z,97160.94
2022-12-07T05:37:23.957Z,97166.88
2022-12-07T05:39:50.623Z,97167.31
2022-12-07T05:42:17.278Z,97163.09
2022-12-07T05:44:43.955Z,97159.44
2022-12-07T05:47:10.549Z,97162.28
2022-12-07T05:49:37.158Z,97166.22
2022-12-07T05:52:03.818Z,97160.25
2022-12-07T05:54:30.501Z,97157.34
2022-12-07T05:56:57.192Z,97161.63
2022-12-07T05:59:23.877Z,97165.91
2022-12-07T06:01:50.581Z,97164.91
2022-12-07T06:04:17.279Z,97161.72
2022-12-07T06:06:44.010Z,97166.69
2022-12-07T06:09:10.711Z,97165.97
2022-12-07T06:11:37.343Z,97174.53
2022-12-07T06:14:03.960Z,97177.69
2022-12-07T06:16:30.719Z,97177.44
2022-12-07T06:18:57.342Z,97172.06
2022-12-07T06:21:23.959Z,97184.59
2022-12-07T06:23:50.615Z,97184.81
2022-12-07T06:26:17.283Z,97186.72
2022-12-07T06:28:43.955Z,97192.81
2022-12-07T06:31:13.878Z,97189.47
2022-12-07T06:33:40.937Z,97183.78
2022-12-07T06:36:07.570Z,97190.59
2022-12-07T06:38:34.241Z,97196.66
2022-12-07T06:41:00.908Z,97195.16
2022-12-07T06:43:27.604Z,97198.16
2022-12-07T06:45:54.225Z,97206.53
2022-12-07T06:48:20.917Z,97200.06
2022-12-07T06:50:51.254Z,97213.00
2022-12-07T06:53:21.213Z,97222.41
2022-12-07T06:55:47.854Z,97219.34
2022-12-07T06:58:14.498Z,97220.63
2022-12-07T07:00:41.170Z,97224.97
2022-12-07T07:03:07.816Z,97219.00
2022-12-07T07:05:34.417Z,97229.59
2022-12-07T07:10:47.662Z,97223.75
2022-12-07T07:13:14.294Z,97222.06
2022-12-07T07:15:40.987Z,97221.97
2022-12-07T07:18:08.156Z,97225.28
2022-12-07T07:20:34.896Z,97222.72
2022-12-07T07:23:01.550Z,97220.81
2022-12-07T07:25:28.217Z,97230.22
2022-12-07T07:27:54.843Z,97235.28
2022-12-07T07:30:21.513Z,97229.34
2022-12-07T07:32:48.147Z,97235.28
2022-12-07T07:35:14.759Z,97231.56
2022-12-07T07:37:41.777Z,97229.09
2022-12-07T07:40:08.940Z,97234.41
2022-12-07T07:42:35.581Z,97230.94
2022-12-07T07:45:02.219Z,97227.38
2022-12-07T07:47:28.822Z,97238.75
2022-12-07T07:49:55.449Z,97235.53
2022-12-07T07:52:22.042Z,97232.13
2022-12-07T07:54:48.703Z,97236.00
2022-12-07T07:57:15.350Z,97239.06
2022-12-07T07:59:41.992Z,97233.19
2022-12-07T08:02:08.665Z,97235.59
2022-12-07T08:04:35.287Z,97236.25
2022-12-07T08:07:01.936Z,97238.22
2022-12-07T08:09:28.538Z,97231.91
2022-12-07T08:11:55.128Z,97241.69
2022-12-07T08:14:21.789Z,97237.75
2022-12-07T08:16:48.505Z,97239.22
2022-12-07T08:19:15.172Z,97239.56
2022-12-07T08:21:42.273Z,97238.91
2022-12-07T08:24:08.979Z,97242.00
2022-12-07T08:26:35.694Z,97241.88
2022-12-07T08:29:02.317Z,97245.31
2022-12-07T08:31:28.984Z,97258.38
2022-12-07T08:33:55.828Z,97251.69
2022-12-07T08:36:22.498Z,97259.03
2022-12-07T08:39:22.543Z,97257.22
2022-12-07T08:41:35.760Z,97258.53
2022-12-07T08:44:02.422Z,97267.38
2022-12-07T08:46:29.106Z,97262.63
2022-12-07T08:48:55.779Z,97267.53
2022-12-07T08:51:22.489Z,97266.88
2022-12-07T08:53:49.162Z,97272.91
2022-12-07T08:56:15.794Z,97273.72
2022-12-07T08:58:42.377Z,97268.66
2022-12-07T09:01:09.106Z,97274.69
2022-12-07T09:03:35.826Z,97273.91
2022-12-07T09:06:02.537Z,97277.00
2022-12-07T09:08:29.334Z,97276.19
2022-12-07T09:10:55.980Z,97274.19
2022-12-07T09:13:22.564Z,97278.94
2022-12-07T09:15:49.274Z,97275.69
2022-12-07T09:18:15.979Z,97276.66
2022-12-07T09:20:42.637Z,97282.56
2022-12-07T09:23:09.266Z,97278.44
2022-12-07T09:25:35.924Z,97275.19
2022-12-07T09:28:02.592Z,97275.34
2022-12-07T09:30:29.238Z,97272.91
2022-12-07T09:32:55.889Z,97263.09
2022-12-07T09:35:22.508Z,97273.38
2022-12-07T09:37:49.158Z,97270.09
2022-12-07T09:40:15.842Z,97265.66
2022-12-07T09:42:42.550Z,97264.97
2022-12-07T09:45:09.208Z,97261.75
2022-12-07T09:47:35.853Z,97260.06
2022-12-07T09:50:02.702Z,97259.31
2022-12-07T09:52:32.993Z,97257.88
2022-12-07T09:55:03.848Z,97252.00
2022-12-07T09:57:30.765Z,97241.78
2022-12-07T09:59:57.424Z,97240.28
2022-12-07T10:02:24.019Z,97239.34
2022-12-07T10:04:50.715Z,97237.91
2022-12-07T10:07:17.443Z,97233.78
2022-12-07T10:09:44.139Z,97242.06
2022-12-07T10:12:10.749Z,97238.88
2022-12-07T10:15:06.452Z,97234.84
2022-12-07T10:17:23.971Z,97228.09
2022-12-07T10:19:52.475Z,97232.19
2022-12-07T10:22:20.139Z,97226.03
2022-12-07T10:24:46.796Z,97231.94
2022-12-07T10:27:13.437Z,97232.53
2022-12-07T10:29:40.075Z,97230.41
2022-12-07T10:32:06.693Z,97236.00
2022-12-07T10:34:39.555Z,97226.97
2022-12-07T10:37:08.280Z,97223.56
2022-12-07T10:39:34.902Z,97223.38
2022-12-07T10:42:01.564Z,97219.81
2022-12-07T10:44:28.173Z,97216.34
2022-12-07T10:46:54.918Z,97211.84
2022-12-07T10:49:21.593Z,97206.03
2022-12-07T10:51:48.225Z,97204.34
2022-12-07T10:54:14.919Z,97200.59
2022-12-07T10:56:41.565Z,97205.31
2022-12-07T10:59:08.218Z,97194.53
2022-12-07T11:01:34.930Z,97196.25
2022-12-07T11:04:01.599Z,97195.03
2022-12-07T11:06:28.258Z,97192.81
2022-12-07T11:08:54.860Z,97199.25
2022-12-07T11:11:21.496Z,97200.84
2022-12-07T11:13:48.103Z,97193.53
2022-12-07T11:16:14.818Z,97196.84
2022-12-07T11:18:41.548Z,97187.75
2022-12-07T11:21:08.138Z,97187.50
2022-12-07T11:23:34.779Z,97191.16
2022-12-07T11:26:01.456Z,97193.63
2022-12-07T11:28:28.065Z,97186.78
2022-12-07T11:30:54.709Z,97180.41
2022-12-07T11:33:21.338Z,97179.81
2022-12-07T11:35:47.958Z,97180.78
2022-12-07T11:38:14.592Z,97175.78
2022-12-07T11:40:41.282Z,97176.00
2022-12-07T11:43:07.964Z,97169.88
2022-12-07T11:45:34.622Z,97168.78
2022-12-07T11:48:01.222Z,97161.84
2022-12-07T11:50:27.909Z,97164.53
2022-12-07T11:52:54.532Z,97159.63
2022-12-07T11:55:21.187Z,97160.06
2022-12-07T11:57:47.781Z,97160.69
2022-12-07T12:00:14.436Z,97155.28
2022-12-07T12:02:41.251Z,97153.44
2022-12-07T12:05:08.019Z,97154.75
2022-12-07T12:10:21.261Z,97151.59
2022-12-07T12:15:34.508Z,97153.75
2022-12-07T12:18:01.193Z,97148.41
2022-12-07T12:20:27.865Z,97146.34
2022-12-07T12:22:54.473Z,97142.00
2022-12-07T12:25:21.081Z,97137.16
2022-12-07T12:27:47.785Z,97132.59
2022-12-07T12:30:14.403Z,97134.34
2022-12-07T12:32:41.073Z,97138.91
2022-12-07T12:35:08.155Z,97135.56
2022-12-07T12:37:34.826Z,97132.47
2022-12-07T12:40:01.585Z,97135.38
2022-12-07T12:42:28.463Z,97131.59
2022-12-07T12:44:55.155Z,97124.72
2022-12-07T12:47:21.778Z,97126.84
2022-12-07T12:49:48.396Z,97129.97
2022-12-07T12:52:15.042Z,97128.22
2022-12-07T12:54:41.721Z,97123.16
2022-12-07T12:57:08.357Z,97121.50
2022-12-07T12:59:34.995Z,97124.94
2022-12-07T13:02:01.646Z,97129.63
2022-12-07T13:04:28.371Z,97127.41
2022-12-07T13:06:55.044Z,97122.53
2022-12-07T13:09:21.678Z,97123.34
2022-12-07T13:11:48.316Z,97122.31
2022-12-07T13:14:14.908Z,97116.25
2022-12-07T13:16:41.561Z,97117.25
2022-12-07T13:19:08.269Z,97121.03
2022-12-07T13:21:34.922Z,97121.19
2022-12-07T13:24:01.560Z,97122.78
2022-12-07T13:26:28.153Z,97124.78
2022-12-07T13:28:54.768Z,97117.53
2022-12-07T13:31:21.470Z,97115.31
2022-12-07T13:33:48.173Z,97129.94
2022-12-07T13:36:14.867Z,97127.25
2022-12-07T13:38:41.510Z,97128.81
2022-12-07T13:41:08.109Z,97125.34
2022-12-07T13:43:34.760Z,97123.19
2022-12-07T13:46:01.434Z,97118.91
2022-12-07T13:48:28.119Z,97128.28
2022-12-07T13:50:54.782Z,97117.91
2022-12-07T13:53:21.516Z,97125.09
2022-12-07T13:55:52.551Z,97131.53
2022-12-07T13:58:20.873Z,97127.41
2022-12-07T14:03:31.515Z,97129.94
2022-12-07T14:05:58.265Z,97134.13
2022-12-07T14:08:25.014Z,97134.28
2022-12-07T14:10:51.745Z,97128.97
2022-12-07T14:13:18.414Z,97139.69
2022-12-07T14:15:45.108Z,97135.63
2022-12-07T14:18:11.705Z,97140.78
2022-12-07T14:20:38.357Z,97144.03
2022-12-07T14:23:05.022Z,97143.34
2022-12-07T14:25:31.673Z,97148.16
2022-12-07T14:27:58.292Z,97143.16
2022-12-07T14:30:24.894Z,97151.59
2022-12-07T14:32:51.565Z,97149.53
2022-12-07T14:35:18.166Z,97152.25
2022-12-07T14:37:44.804Z,97154.09
2022-12-07T14:40:11.420Z,97151.38
2022-12-07T14:42:38.276Z,97152.03
2022-12-07T14:45:05.303Z,97151.28
2022-12-07T14:50:18.744Z,97147.69
2022-12-07T14:55:32.065Z,97152.31
2022-12-07T14:57:58.729Z,97162.72
2022-12-07T15:00:25.412Z,97163.94
2022-12-07T15:02:52.153Z,97170.63
2022-12-07T15:05:19.468Z,97175.69
2022-12-07T15:07:46.323Z,97176.50
2022-12-07T15:10:13.015Z,97182.84
2022-12-07T15:12:39.673Z,97185.50
2022-12-07T15:15:06.316Z,97189.44
2022-12-07T15:17:33.065Z,97193.34
2022-12-07T15:19:59.740Z,97189.34
2022-12-07T15:22:26.382Z,97191.31
2022-12-07T15:24:53.006Z,97199.25
2022-12-07T15:27:19.682Z,97199.47
2022-12-07T15:29:46.355Z,97194.59
2022-12-07T15:32:13.009Z,97197.91
2022-12-07T15:34:40.759Z,97197.75
2022-12-07T15:37:07.610Z,97201.09
2022-12-07T15:39:34.236Z,97200.41
2022-12-07T15:42:00.903Z,97200.66
2022-12-07T15:44:30.900Z,97199.38
2022-12-07T15:46:58.014Z,97198.44
2022-12-07T15:49:24.677Z,97199.38
2022-12-07T15:51:51.348Z,97201.63
2022-12-07T15:54:17.990Z,97201.28
2022-12-07T15:56:44.613Z,97200.47
2022-12-07T15:59:11.264Z,97208.22
2022-12-07T16:01:37.973Z,97206.41
2022-12-07T16:04:04.588Z,97202.97
2022-12-07T16:06:31.202Z,97212.75
2022-12-07T16:08:57.849Z,97205.75
2022-12-07T16:11:24.488Z,97204.09
2022-12-07T16:13:51.182Z,97207.78
2022-12-07T16:16:17.873Z,97208.31
2022-12-07T16:18:44.578Z,97211.28
2022-12-07T16:21:11.192Z,97208.09
2022-12-07T16:23:37.792Z,97201.59
2022-12-07T16:26:04.447Z,97206.06
2022-12-07T16:28:31.064Z,97204.59
2022-12-07T16:30:57.742Z,97211.81
2022-12-07T16:33:24.390Z,97210.66
2022-12-07T16:35:51.054Z,97207.88
2022-12-07T16:38:19.823Z,97207.88
2022-12-07T16:40:46.471Z,97213.91
2022-12-07T16:43:13.207Z,97217.03
2022-12-07T16:45:39.905Z,97213.91
2022-12-07T16:48:06.526Z,97214.25
2022-12-07T16:50:33.169Z,97216.63
2022-12-07T16:52:59.774Z,97219.31
2022-12-07T16:55:26.435Z,97222.66
2022-12-07T16:57:53.111Z,97225.25
2022-12-07T17:00:19.766Z,97216.47
2022-12-07T17:02:46.453Z,97224.38
2022-12-07T17:05:13.087Z,97218.75
2022-12-07T17:07:39.810Z,97232.75
2022-12-07T17:10:06.532Z,97227.16
2022-12-07T17:12:33.136Z,97229.72
2022-12-07T17:14:59.937Z,97227.50
2022-12-07T17:17:26.626Z,97230.88
2022-12-07T17:19:53.261Z,97229.16
2022-12-07T17:22:19.848Z,97236.06
2022-12-07T17:24:47.022Z,97231.34
2022-12-07T17:27:13.613Z,97227.41
2022-12-07T17:29:40.267Z,97233.19
2022-12-07T17:32:06.970Z,97235.31
2022-12-07T17:34:33.790Z,97226.69
2022-12-07T17:37:00.429Z,97226.53
2022-12-07T17:39:27.118Z,97230.22
2022-12-07T17:41:53.745Z,97225.28
2022-12-07T17:44:20.320Z,97230.00
2022-12-07T17:46:46.941Z,97224.19
2022-12-07T17:49:13.529Z,97224.19
2022-12-07T17:51:40.150Z,97222.22
2022-12-07T17:54:06.784Z,97224.56
2022-12-07T17:56:33.479Z,97229.34
2022-12-07T17:59:00.151Z,97233.25
2022-12-07T18:01:32.887Z,97231.09
2022-12-07T18:04:01.209Z,97228.97
2022-12-07T18:06:27.818Z,97230.06
2022-12-07T18:08:54.438Z,97232.63
2022-12-07T18:11:21.081Z,97237.09
2022-12-07T18:13:47.761Z,97232.22
2022-12-07T18:16:14.499Z,97234.03
2022-12-07T18:18:41.188Z,97226.09
2022-12-07T18:21:07.806Z,97230.06
2022-12-07T18:23:34.420Z,97232.31
2022-12-07T18:26:01.054Z,97230.28
2022-12-07T18:28:27.726Z,97225.28
2022-12-07T18:33:41.000Z,97230.22
2022-12-07T18:36:07.681Z,97229.00
2022-12-07T18:38:34.333Z,97222.72
2022-12-07T18:41:00.970Z,97228.59
2022-12-07T18:43:27.620Z,97229.59
2022-12-07T18:45:56.145Z,97225.28
2022-12-07T18:48:23.127Z,97230.41
2022-12-07T18:50:49.723Z,97236.56
2022-12-07T18:53:16.375Z,97234.22
2022-12-07T18:55:43.005Z,97228.81
2022-12-07T18:58:09.594Z,97227.97
2022-12-07T19:00:36.210Z,97231.78
2022-12-07T19:03:02.846Z,97224.97
2022-12-07T19:05:29.526Z,97222.38
2022-12-07T19:07:56.192Z,97228.09
2022-12-07T19:10:22.883Z,97222.78
2022-12-07T19:12:49.583Z,97222.22
2022-12-07T19:15:16.236Z,97223.41
2022-12-07T19:17:42.866Z,97224.41
2022-12-07T19:20:09.464Z,97220.59
2022-12-07T19:22:36.297Z,97217.53
2022-12-07T19:25:03.130Z,97219.69
2022-12-07T19:27:30.098Z,97222.59
2022-12-07T19:29:56.782Z,97217.44
2022-12-07T19:32:23.525Z,97217.91
2022-12-07T19:34:50.215Z,97222.31
2022-12-07T19:37:16.877Z,97218.59
2022-12-07T19:39:43.515Z,97215.47
2022-12-07T19:42:10.138Z,97222.50
2022-12-07T19:44:36.790Z,97219.59
2022-12-07T19:47:05.238Z,97215.44
2022-12-07T19:49:31.997Z,97213.28
2022-12-07T19:51:58.608Z,97217.00
2022-12-07T19:54:25.309Z,97219.53
2022-12-07T19:56:51.993Z,97218.81
2022-12-07T19:59:18.610Z,97223.25
2022-12-07T20:01:45.320Z,97230.28
2022-12-07T20:04:12.009Z,97228.97
2022-12-07T20:06:38.638Z,97226.59
2022-12-07T20:09:05.302Z,97226.66
2022-12-07T20:11:31.900Z,97221.28
2022-12-07T20:13:58.528Z,97227.84
2022-12-07T20:16:25.205Z,97226.53
2022-12-07T20:18:57.419Z,97222.63
2022-12-07T20:21:24.610Z,97225.53
2022-12-07T20:23:51.204Z,97226.59
2022-12-07T20:26:17.871Z,97234.06
2022-12-07T20:28:44.517Z,97229.66
2022-12-07T20:31:11.583Z,97223.66
2022-12-07T20:33:38.270Z,97228.28
2022-12-07T20:36:04.917Z,97230.50
2022-12-07T20:38:31.557Z,97228.56
2022-12-07T20:40:58.245Z,97227.91
2022-12-07T20:43:24.907Z,97226.59
2022-12-07T20:45:51.587Z,97217.53
2022-12-07T20:48:18.297Z,97217.81
2022-12-07T20:50:44.888Z,97217.50
2022-12-07T20:53:11.564Z,97215.63
2022-12-07T20:55:38.158Z,97215.19
2022-12-07T20:58:05.007Z,97216.28
2022-12-07T21:00:31.638Z,97219.84
2022-12-07T21:02:58.346Z,97215.19
2022-12-07T21:05:25.041Z,97213.66
2022-12-07T21:07:51.782Z,97219.13
2022-12-07T21:10:18.429Z,97218.94
2022-12-07T21:12:45.082Z,97218.53
2022-12-07T21:15:11.738Z,97229.47
2022-12-07T21:20:23.120Z,97229.03
2022-12-07T21:22:49.734Z,97227.81
2022-12-07T21:25:16.353Z,97225.28
2022-12-07T21:27:42.950Z,97226.66
2022-12-07T21:30:09.617Z,97224.69
2022-12-07T21:32:36.249Z,97232.28
2022-12-07T21:35:03.102Z,97224.25
2022-12-07T21:37:29.996Z,97226.72
2022-12-07T21:39:56.648Z,97231.38
2022-12-07T21:42:23.328Z,97227.59
2022-12-07T21:44:49.925Z,97228.72
2022-12-07T21:47:16.560Z,97226.63
2022-12-07T21:49:43.255Z,97231.00
2022-12-07T21:52:09.877Z,97235.09
2022-12-07T21:54:36.509Z,97230.84
2022-12-07T21:57:03.141Z,97232.28
2022-12-07T21:59:29.784Z,97230.22
2022-12-07T22:01:56.543Z,97234.16
2022-12-07T22:04:23.294Z,97230.31
2022-12-07T22:06:49.942Z,97227.53
2022-12-07T22:09:16.598Z,97224.91
2022-12-07T22:11:43.285Z,97226.19
2022-12-07T22:14:10.891Z,97232.53
2022-12-07T22:16:37.692Z,97220.75
2022-12-07T22:19:04.423Z,97221.78
2022-12-07T22:21:31.113Z,97217.34
2022-12-07T22:23:57.714Z,97214.56
2022-12-07T22:26:24.798Z,97213.66
2022-12-07T22:28:51.525Z,97212.50
2022-12-07T22:31:18.230Z,97215.53
2022-12-07T22:33:44.893Z,97216.19
2022-12-07T22:36:11.488Z,97215.59
2022-12-07T22:38:38.124Z,97214.25
2022-12-07T22:41:04.741Z,97216.94
2022-12-07T22:43:31.431Z,97216.44
2022-12-07T22:45:58.082Z,97217.97
2022-12-07T22:48:24.831Z,97220.59
2022-12-07T22:50:51.450Z,97212.75
2022-12-07T22:53:18.058Z,97213.44
2022-12-07T22:55:44.725Z,97220.59
2022-12-07T22:58:11.326Z,97202.19
2022-12-07T23:00:37.995Z,97203.59
2022-12-07T23:03:04.739Z,97200.56
2022-12-07T23:05:31.422Z,97200.78
2022-12-07T23:07:58.168Z,97198.38
2022-12-07T23:10:24.869Z,97193.47
2022-12-07T23:12:51.492Z,97196.16
2022-12-07T23:15:18.174Z,97186.31
2022-12-07T23:17:44.826Z,97190.91
2022-12-07T23:20:11.506Z,97190.25
2022-12-07T23:22:38.148Z,97189.59
2022-12-07T23:25:05.094Z,97190.66
2022-12-07T23:27:31.992Z,97184.09
2022-12-07T23:29:58.626Z,97198.25
2022-12-07T23:32:25.235Z,97193.88
2022-12-07T23:34:51.856Z,97185.97
2022-12-07T23:37:18.467Z,97186.22
2022-12-07T23:39:45.155Z,97185.63
2022-12-07T23:42:11.805Z,97181.78
2022-12-07T23:44:38.428Z,97170.06
2022-12-07T23:47:05.094Z,97169.47
2022-12-07T23:49:31.841Z,97166.84
2022-12-07T23:51:58.462Z,97159.09
2022-12-07T23:54:25.100Z,97160.22
2022-12-07T23:56:51.756Z,97153.81
2022-12-07T23:59:18.389Z,97150.31
